Roatan, Honduras
Current Conditions -  °F | °C
As of 7:00 PM on Monday 22 Dec 2014 (Local Time) from MHLC Reporting Station
Few Clouds Few Clouds  
Wind Chill: 23°   Ceiling: Unl
Heat Index: 23°   Visibility: 6mi
Dew Point: 19°   Wind: 2mph
Humidity: 78%   Direction: 120°ESE
Pressure: 29.8"   Gusts: NA
Location:  16.33°N, 86.52°W
Report Text: MHLC 230100Z 12002KT 9999 FEW026 23/19 Q1009 A2980 NOSIG
Loading
Personal Weather Stations






























Interactive Weather Map New forecast layout! Learn more

10-Day Weather Forecast

Advertisements
Track Severe Weather on mobile